This is the latest recevied weather packets stored in our database for station/object E25DQY-1. If no packets are shown the sender has not sent any weather packets the latest 10 day(s).
| Time | Temp. | Humidity | Pressure | Rain* | Wind** | Luminosity | Snow |
|---|---|---|---|---|---|---|---|
| 1778247857 | 26.67° C | 59% | 1006 hPa | - | - | 0 W/m² | - |
| 1778246034 | 26.67° C | 59% | 1005 hPa | - | - | 0 W/m² | - |
| 1778242390 | 26.67° C | 58% | 1004 hPa | - | - | 0 W/m² | - |
| 1778240568 | 26.67° C | 57% | 1004 hPa | - | - | 0 W/m² | - |
| 1778238746 | 26.67° C | 56% | 1003 hPa | - | - | 0 W/m² | - |
| 1778236924 | 26.67° C | 52% | 1003 hPa | - | - | 0 W/m² | - |
| 1778235102 | 26.67° C | 51% | 1002 hPa | - | - | 0 W/m² | - |
| 1778233280 | 27.22° C | 47% | 1002 hPa | - | - | 0 W/m² | - |
| 1778231458 | 27.78° C | 42% | 1002 hPa | - | - | 0 W/m² | - |
| 1778229637 | 28.33° C | 41% | 1002 hPa | - | - | 0 W/m² | - |
| 1778227814 | 28.89° C | 38% | 1002 hPa | - | - | 0 W/m² | - |
| 1778225992 | 28.89° C | 38% | 1002 hPa | - | - | 0 W/m² | - |
| 1778224170 | 29.44° C | 38% | 1002 hPa | - | - | 0 W/m² | - |
| 1778222348 | 28.89° C | 39% | 1003 hPa | - | - | 0 W/m² | - |
| 1778220526 | 28.89° C | 40% | 1004 hPa | - | - | 0 W/m² | - |
| 1778218703 | 28.33° C | 41% | 1004 hPa | - | - | 0 W/m² | - |
| 1778198660 | 26.67° C | 63% | 1005 hPa | - | - | 0 W/m² | - |
| 1778191370 | 26.11° C | 65% | 1004 hPa | - | - | 0 W/m² | - |
| 1778185878 | 26.11° C | 64% | 1003 hPa | - | - | 0 W/m² | - |
| 1778184056 | 26.11° C | 64% | 1003 hPa | - | - | 0 W/m² | - |
| 1778182234 | 26.11° C | 64% | 1004 hPa | - | - | 0 W/m² | - |
| 1778180412 | 26.11° C | 65% | 1004 hPa | - | - | 0 W/m² | - |
| 1778178590 | 26.11° C | 63% | 1004 hPa | - | - | 0 W/m² | - |
| 1778176768 | 26.11° C | 62% | 1004 hPa | - | - | 0 W/m² | - |
| 1778174945 | 26.11° C | 63% | 1005 hPa | - | - | 0 W/m² | - |
* Rain since midnight (hover to see other rain measurements)
** Current wind speed in m/s (hover to see current wind gust speed)